OOEHY BIRF-BGBW
Flight info
| Callsign | OOEHY |
|---|---|
| Flight time | N/A |
| Altitude | 4000 |
| Route | KAYAK DCT NA |
| Aircraft | C172/L-SFG/C |
Departure
| Time | N/A |
|---|---|
| Airport | Rif Airport (BIRF) |
Arrival
| Time | 2026-04-16 12:59 |
|---|---|
| Airport | Narsarsuaq Airport (BGBW) |
| Time | Latitude | Longitude | Altitude | Speed | Heading |
|---|---|---|---|---|---|
| 2026-04-16 11:10 | 63.61913 | -41.20227 | 5859 ft | 84 kts | 217° |
| 2026-04-16 11:10 | 63.61462 | -41.21048 | 5963 ft | 84 kts | 218° |
| 2026-04-16 11:10 | 63.61008 | -41.21885 | 6067 ft | 84 kts | 218° |
| 2026-04-16 11:10 | 63.60560 | -41.22719 | 6168 ft | 84 kts | 218° |
| 2026-04-16 11:11 | 63.60106 | -41.23567 | 6269 ft | 84 kts | 218° |
| 2026-04-16 11:11 | 63.59657 | -41.24409 | 6368 ft | 84 kts | 218° |
| 2026-04-16 11:11 | 63.59204 | -41.25263 | 6466 ft | 85 kts | 218° |
| 2026-04-16 11:11 | 63.58757 | -41.26108 | 6562 ft | 85 kts | 218° |
| 2026-04-16 11:12 | 63.58304 | -41.26968 | 6657 ft | 85 kts | 219° |
| 2026-04-16 11:12 | 63.57853 | -41.27823 | 6751 ft | 85 kts | 219° |
| 2026-04-16 11:12 | 63.57405 | -41.28674 | 6843 ft | 85 kts | 219° |
| 2026-04-16 11:12 | 63.56952 | -41.29536 | 6935 ft | 85 kts | 219° |
| 2026-04-16 11:13 | 63.56497 | -41.30401 | 7025 ft | 85 kts | 219° |
| 2026-04-16 11:13 | 63.56047 | -41.31256 | 7114 ft | 85 kts | 219° |
| 2026-04-16 11:13 | 63.55590 | -41.32127 | 7202 ft | 86 kts | 219° |
| 2026-04-16 11:13 | 63.55138 | -41.32986 | 7288 ft | 86 kts | 219° |
| 2026-04-16 11:14 | 63.54682 | -41.33856 | 7374 ft | 86 kts | 219° |
| 2026-04-16 11:14 | 63.54227 | -41.34721 | 7459 ft | 86 kts | 219° |
| 2026-04-16 11:14 | 63.53773 | -41.35585 | 7542 ft | 86 kts | 219° |
| 2026-04-16 11:14 | 63.53313 | -41.36460 | 7625 ft | 86 kts | 219° |
| 2026-04-16 11:15 | 63.52858 | -41.37324 | 7707 ft | 86 kts | 219° |
| 2026-04-16 11:15 | 63.52397 | -41.38201 | 7788 ft | 86 kts | 219° |
| 2026-04-16 11:15 | 63.51942 | -41.39065 | 7867 ft | 86 kts | 219° |
| 2026-04-16 11:15 | 63.51482 | -41.39940 | 7946 ft | 87 kts | 219° |
| 2026-04-16 11:16 | 63.51024 | -41.40809 | 8024 ft | 87 kts | 219° |
| 2026-04-16 11:16 | 63.50560 | -41.41688 | 8101 ft | 87 kts | 219° |
| 2026-04-16 11:16 | 63.50100 | -41.42561 | 8177 ft | 87 kts | 219° |
| 2026-04-16 11:16 | 63.49637 | -41.43439 | 8253 ft | 87 kts | 219° |
| 2026-04-16 11:17 | 63.49173 | -41.44318 | 8328 ft | 87 kts | 219° |
| 2026-04-16 11:17 | 63.48716 | -41.45185 | 8401 ft | 87 kts | 219° |
| 2026-04-16 11:17 | 63.48250 | -41.46067 | 8474 ft | 87 kts | 219° |
| 2026-04-16 11:17 | 63.47789 | -41.46938 | 8546 ft | 87 kts | 219° |
| 2026-04-16 11:18 | 63.47322 | -41.47823 | 8618 ft | 87 kts | 219° |
| 2026-04-16 11:18 | 63.46858 | -41.48699 | 8688 ft | 88 kts | 219° |
| 2026-04-16 11:18 | 63.46395 | -41.49574 | 8758 ft | 88 kts | 219° |
| 2026-04-16 11:18 | 63.45927 | -41.50458 | 8828 ft | 88 kts | 219° |
| 2026-04-16 11:19 | 63.45462 | -41.51337 | 8896 ft | 88 kts | 219° |
| 2026-04-16 11:19 | 63.44990 | -41.52227 | 8965 ft | 88 kts | 219° |
| 2026-04-16 11:19 | 63.44524 | -41.53106 | 9032 ft | 88 kts | 219° |
| 2026-04-16 11:19 | 63.44058 | -41.53983 | 9098 ft | 88 kts | 219° |
| 2026-04-16 11:20 | 63.43586 | -41.54872 | 9165 ft | 88 kts | 219° |
| 2026-04-16 11:20 | 63.43114 | -41.55763 | 9231 ft | 88 kts | 219° |
| 2026-04-16 11:20 | 63.42646 | -41.56643 | 9295 ft | 88 kts | 219° |
| 2026-04-16 11:20 | 63.42178 | -41.57525 | 9359 ft | 88 kts | 219° |
| 2026-04-16 11:21 | 63.41704 | -41.58415 | 9423 ft | 89 kts | 219° |
| 2026-04-16 11:21 | 63.41235 | -41.59298 | 9486 ft | 89 kts | 219° |
| 2026-04-16 11:21 | 63.40757 | -41.60196 | 9532 ft | 91 kts | 219° |
| 2026-04-16 11:21 | 63.40263 | -41.61138 | 9541 ft | 97 kts | 221° |
| 2026-04-16 11:22 | 63.39738 | -41.62162 | 9542 ft | 103 kts | 222° |
| 2026-04-16 11:22 | 63.39189 | -41.63248 | 9541 ft | 109 kts | 223° |
| 2026-04-16 11:22 | 63.38608 | -41.64405 | 9540 ft | 115 kts | 224° |
| 2026-04-16 11:22 | 63.37997 | -41.65628 | 9567 ft | 118 kts | 223° |
| 2026-04-16 11:23 | 63.37389 | -41.66835 | 9615 ft | 118 kts | 222° |
| 2026-04-16 11:23 | 63.36765 | -41.68054 | 9664 ft | 118 kts | 222° |
| 2026-04-16 11:23 | 63.36145 | -41.69250 | 9711 ft | 118 kts | 221° |
| 2026-04-16 11:23 | 63.35521 | -41.70443 | 9759 ft | 119 kts | 221° |
| 2026-04-16 11:24 | 63.34897 | -41.71629 | 9807 ft | 119 kts | 221° |
| 2026-04-16 11:24 | 63.34265 | -41.72823 | 9855 ft | 119 kts | 221° |
| 2026-04-16 11:24 | 63.33637 | -41.74004 | 9903 ft | 119 kts | 221° |
| 2026-04-16 11:24 | 63.33004 | -41.75192 | 9951 ft | 119 kts | 221° |
| 2026-04-16 11:25 | 63.32370 | -41.76378 | 10000 ft | 119 kts | 221° |
| 2026-04-16 11:25 | 63.31744 | -41.77547 | 10047 ft | 119 kts | 221° |
| 2026-04-16 11:25 | 63.31108 | -41.78732 | 10095 ft | 119 kts | 221° |
| 2026-04-16 11:25 | 63.30474 | -41.79914 | 10144 ft | 119 kts | 221° |
| 2026-04-16 11:26 | 63.29847 | -41.81079 | 10191 ft | 119 kts | 221° |
| 2026-04-16 11:26 | 63.29210 | -41.82264 | 10240 ft | 119 kts | 221° |
| 2026-04-16 11:26 | 63.28582 | -41.83429 | 10288 ft | 119 kts | 221° |
| 2026-04-16 11:26 | 63.27947 | -41.84609 | 10336 ft | 118 kts | 221° |
| 2026-04-16 11:27 | 63.27319 | -41.85771 | 10384 ft | 118 kts | 221° |
| 2026-04-16 11:27 | 63.27225 | -41.85945 | 10391 ft | 118 kts | 221° |
| 2026-04-16 11:27 | 63.26701 | -41.86939 | 10770 ft | 118 kts | 213° |
| 2026-04-16 11:27 | 63.26066 | -41.88105 | 10819 ft | 118 kts | 212° |
| 2026-04-16 11:28 | 63.25436 | -41.89258 | 10870 ft | 118 kts | 212° |
| 2026-04-16 11:28 | 63.24795 | -41.90434 | 10921 ft | 118 kts | 213° |
| 2026-04-16 11:28 | 63.24166 | -41.91587 | 10988 ft | 118 kts | 213° |
| 2026-04-16 11:28 | 63.23529 | -41.92757 | 11052 ft | 119 kts | 214° |
| 2026-04-16 11:29 | 63.22898 | -41.93910 | 11143 ft | 118 kts | 213° |
| 2026-04-16 11:29 | 63.22272 | -41.95068 | 11200 ft | 118 kts | 215° |
| 2026-04-16 11:29 | 63.21634 | -41.96238 | 11278 ft | 118 kts | 215° |
| 2026-04-16 11:29 | 63.21009 | -41.97389 | 11336 ft | 117 kts | 216° |
| 2026-04-16 11:30 | 63.20385 | -41.98537 | 11425 ft | 117 kts | 217° |
| 2026-04-16 11:30 | 63.19757 | -41.99689 | 11482 ft | 117 kts | 217° |
| 2026-04-16 11:30 | 63.19111 | -42.00876 | 11464 ft | 123 kts | 216° |
| 2026-04-16 11:30 | 63.18435 | -42.02135 | 11420 ft | 129 kts | 217° |
| 2026-04-16 11:31 | 63.17745 | -42.03434 | 11373 ft | 134 kts | 218° |
| 2026-04-16 11:31 | 63.17023 | -42.04789 | 11308 ft | 136 kts | 218° |
| 2026-04-16 11:31 | 63.16293 | -42.06153 | 11257 ft | 138 kts | 217° |
| 2026-04-16 11:31 | 63.15564 | -42.07511 | 11193 ft | 139 kts | 218° |
| 2026-04-16 11:32 | 63.14822 | -42.08886 | 11161 ft | 138 kts | 217° |
| 2026-04-16 11:32 | 63.14106 | -42.10209 | 11164 ft | 130 kts | 218° |
| 2026-04-16 11:32 | 63.13434 | -42.11448 | 11140 ft | 120 kts | 217° |
| 2026-04-16 11:32 | 63.12808 | -42.12575 | 11154 ft | 115 kts | 216° |
| 2026-04-16 11:33 | 63.12191 | -42.13674 | 11130 ft | 111 kts | 216° |
| 2026-04-16 11:33 | 63.11606 | -42.14719 | 11154 ft | 106 kts | 216° |
| 2026-04-16 11:33 | 63.11042 | -42.15722 | 11127 ft | 103 kts | 214° |
| 2026-04-16 11:33 | 63.10493 | -42.16678 | 11177 ft | 99 kts | 211° |
| 2026-04-16 11:34 | 63.09956 | -42.17627 | 11136 ft | 99 kts | 212° |
| 2026-04-16 11:34 | 63.09424 | -42.18560 | 11139 ft | 99 kts | 210° |
| 2026-04-16 11:34 | 63.08873 | -42.19515 | 11132 ft | 99 kts | 211° |
| 2026-04-16 11:34 | 63.08332 | -42.20468 | 11125 ft | 101 kts | 214° |
| 2026-04-16 11:35 | 63.07776 | -42.21450 | 11154 ft | 103 kts | 216° |
| 2026-04-16 11:35 | 63.07213 | -42.22481 | 11136 ft | 109 kts | 215° |
| 2026-04-16 11:35 | 63.06625 | -42.23552 | 11139 ft | 112 kts | 214° |
| 2026-04-16 11:35 | 63.06016 | -42.24683 | 11155 ft | 117 kts | 217° |
| 2026-04-16 11:36 | 63.05387 | -42.25866 | 11155 ft | 122 kts | 218° |
| 2026-04-16 11:36 | 63.04729 | -42.27121 | 11138 ft | 126 kts | 218° |
| 2026-04-16 11:36 | 63.04068 | -42.28368 | 11126 ft | 125 kts | 218° |
| 2026-04-16 11:36 | 63.03419 | -42.29590 | 11114 ft | 119 kts | 217° |
| 2026-04-16 11:37 | 63.02794 | -42.30738 | 11097 ft | 115 kts | 215° |
| 2026-04-16 11:37 | 63.02194 | -42.31820 | 11106 ft | 111 kts | 214° |
| 2026-04-16 11:37 | 63.01600 | -42.32878 | 11112 ft | 108 kts | 214° |
| 2026-04-16 11:37 | 63.01017 | -42.33904 | 11110 ft | 107 kts | 214° |
| 2026-04-16 11:38 | 63.00447 | -42.34924 | 11094 ft | 105 kts | 214° |
| 2026-04-16 11:38 | 62.99883 | -42.35931 | 11078 ft | 102 kts | 214° |
| 2026-04-16 11:38 | 62.99346 | -42.36884 | 11073 ft | 98 kts | 214° |
| 2026-04-16 11:38 | 62.98822 | -42.37803 | 11079 ft | 95 kts | 213° |
| 2026-04-16 11:39 | 62.98321 | -42.38678 | 11098 ft | 90 kts | 215° |
| 2026-04-16 11:39 | 62.97825 | -42.39537 | 11065 ft | 90 kts | 210° |
| 2026-04-16 11:39 | 62.97348 | -42.40381 | 11112 ft | 89 kts | 214° |
| 2026-04-16 11:39 | 62.96860 | -42.41250 | 11096 ft | 90 kts | 211° |
| 2026-04-16 11:40 | 62.96364 | -42.42113 | 11097 ft | 91 kts | 217° |
| 2026-04-16 11:40 | 62.95874 | -42.42989 | 11084 ft | 93 kts | 208° |
| 2026-04-16 11:40 | 62.95381 | -42.43872 | 11092 ft | 92 kts | 212° |
| 2026-04-16 11:40 | 62.94892 | -42.44739 | 11094 ft | 91 kts | 211° |
| 2026-04-16 11:41 | 62.94395 | -42.45630 | 11100 ft | 92 kts | 213° |
| 2026-04-16 11:41 | 62.93902 | -42.46509 | 11077 ft | 92 kts | 213° |
| 2026-04-16 11:41 | 62.93411 | -42.47391 | 11104 ft | 91 kts | 214° |
| 2026-04-16 11:41 | 62.92919 | -42.48277 | 11080 ft | 91 kts | 212° |
| 2026-04-16 11:42 | 62.92442 | -42.49131 | 11100 ft | 89 kts | 211° |
| 2026-04-16 11:42 | 62.91955 | -42.49994 | 11108 ft | 90 kts | 213° |
| 2026-04-16 11:42 | 62.91465 | -42.50869 | 11089 ft | 93 kts | 212° |
| 2026-04-16 11:42 | 62.90977 | -42.51756 | 11084 ft | 91 kts | 212° |
| 2026-04-16 11:43 | 62.90497 | -42.52620 | 11071 ft | 88 kts | 210° |
| 2026-04-16 11:43 | 62.90036 | -42.53447 | 11087 ft | 85 kts | 211° |
| 2026-04-16 11:43 | 62.89583 | -42.54243 | 11114 ft | 84 kts | 212° |
| 2026-04-16 11:43 | 62.89115 | -42.55052 | 11098 ft | 85 kts | 213° |
| 2026-04-16 11:44 | 62.88654 | -42.55866 | 11088 ft | 85 kts | 209° |
| 2026-04-16 11:44 | 62.88203 | -42.56670 | 11104 ft | 83 kts | 211° |
| 2026-04-16 11:44 | 62.87741 | -42.57483 | 11075 ft | 84 kts | 212° |
| 2026-04-16 11:44 | 62.87299 | -42.58279 | 11101 ft | 82 kts | 211° |
| 2026-04-16 11:45 | 62.86856 | -42.59055 | 11105 ft | 83 kts | 211° |
| 2026-04-16 11:45 | 62.86398 | -42.59865 | 11099 ft | 85 kts | 214° |
| 2026-04-16 11:45 | 62.85939 | -42.60688 | 11110 ft | 87 kts | 214° |
| 2026-04-16 11:45 | 62.85460 | -42.61540 | 11080 ft | 91 kts | 215° |
| 2026-04-16 11:46 | 62.84985 | -42.62403 | 11074 ft | 87 kts | 214° |
| 2026-04-16 11:46 | 62.84517 | -42.63242 | 11086 ft | 86 kts | 211° |
| 2026-04-16 11:46 | 62.84058 | -42.64060 | 11099 ft | 86 kts | 212° |
| 2026-04-16 11:46 | 62.83585 | -42.64903 | 11085 ft | 87 kts | 212° |
| 2026-04-16 11:47 | 62.83116 | -42.65741 | 11094 ft | 87 kts | 212° |
| 2026-04-16 11:47 | 62.82651 | -42.66574 | 11100 ft | 87 kts | 211° |
| 2026-04-16 11:47 | 62.82176 | -42.67427 | 11115 ft | 89 kts | 213° |
| 2026-04-16 11:47 | 62.81697 | -42.68285 | 11098 ft | 91 kts | 212° |
| 2026-04-16 11:48 | 62.81205 | -42.69168 | 11094 ft | 90 kts | 211° |
| 2026-04-16 11:48 | 62.80725 | -42.70026 | 11100 ft | 89 kts | 216° |
| 2026-04-16 11:48 | 62.80247 | -42.70887 | 11077 ft | 88 kts | 213° |
| 2026-04-16 11:48 | 62.79778 | -42.71724 | 11109 ft | 86 kts | 212° |
| 2026-04-16 11:49 | 62.79301 | -42.72564 | 11084 ft | 87 kts | 211° |
| 2026-04-16 11:49 | 62.78836 | -42.73389 | 11082 ft | 86 kts | 212° |
| 2026-04-16 11:49 | 62.78372 | -42.74207 | 11079 ft | 85 kts | 211° |
| 2026-04-16 11:49 | 62.77918 | -42.75004 | 11078 ft | 83 kts | 211° |
| 2026-04-16 11:50 | 62.77468 | -42.75792 | 11080 ft | 82 kts | 210° |
| 2026-04-16 11:50 | 62.77025 | -42.76566 | 11082 ft | 80 kts | 210° |
| 2026-04-16 11:50 | 62.76596 | -42.77309 | 11089 ft | 78 kts | 209° |
| 2026-04-16 11:50 | 62.76164 | -42.78055 | 11090 ft | 79 kts | 209° |
| 2026-04-16 11:51 | 62.75737 | -42.78795 | 11087 ft | 79 kts | 210° |
| 2026-04-16 11:51 | 62.75304 | -42.79549 | 11084 ft | 79 kts | 211° |
| 2026-04-16 11:51 | 62.74878 | -42.80295 | 11081 ft | 79 kts | 211° |
| 2026-04-16 11:51 | 62.74453 | -42.81039 | 11078 ft | 78 kts | 211° |
| 2026-04-16 11:52 | 62.74014 | -42.81805 | 11018 ft | 85 kts | 212° |
| 2026-04-16 11:52 | 62.73535 | -42.82663 | 10948 ft | 92 kts | 214° |
| 2026-04-16 11:52 | 62.73027 | -42.83597 | 10876 ft | 98 kts | 216° |
| 2026-04-16 11:52 | 62.72498 | -42.84582 | 10803 ft | 103 kts | 216° |
| 2026-04-16 11:53 | 62.71946 | -42.85611 | 10737 ft | 107 kts | 217° |
| 2026-04-16 11:53 | 62.71362 | -42.86695 | 10665 ft | 112 kts | 217° |
| 2026-04-16 11:53 | 62.70756 | -42.87816 | 10591 ft | 116 kts | 218° |
| 2026-04-16 11:53 | 62.70138 | -42.88960 | 10510 ft | 118 kts | 218° |
| 2026-04-16 11:54 | 62.69501 | -42.90132 | 10424 ft | 120 kts | 218° |
| 2026-04-16 11:54 | 62.68864 | -42.91298 | 10339 ft | 121 kts | 218° |
| 2026-04-16 11:54 | 62.68211 | -42.92484 | 10253 ft | 122 kts | 218° |
| 2026-04-16 11:54 | 62.67550 | -42.93674 | 10166 ft | 123 kts | 218° |
| 2026-04-16 11:55 | 62.66892 | -42.94848 | 10120 ft | 121 kts | 218° |
| 2026-04-16 11:55 | 62.66350 | -42.95811 | 10115 ft | 118 kts | 217° |
| 2026-04-16 11:55 | 62.66168 | -42.96131 | 10115 ft | 117 kts | 217° |
| 2026-04-16 11:55 | 62.65548 | -42.97214 | 10118 ft | 113 kts | 216° |
| 2026-04-16 11:56 | 62.64935 | -42.98274 | 10125 ft | 111 kts | 216° |
| 2026-04-16 11:56 | 62.64343 | -42.99293 | 10130 ft | 108 kts | 216° |
| 2026-04-16 11:56 | 62.63753 | -43.00304 | 10132 ft | 106 kts | 215° |
| 2026-04-16 11:56 | 62.63177 | -43.01292 | 10137 ft | 103 kts | 214° |
| 2026-04-16 11:57 | 62.62621 | -43.02244 | 10138 ft | 102 kts | 214° |
| 2026-04-16 11:57 | 62.62075 | -43.03182 | 10141 ft | 99 kts | 214° |
| 2026-04-16 11:57 | 62.61533 | -43.04110 | 10143 ft | 99 kts | 213° |
| 2026-04-16 11:57 | 62.60974 | -43.05059 | 10143 ft | 103 kts | 214° |
| 2026-04-16 11:58 | 62.60401 | -43.06046 | 10137 ft | 107 kts | 215° |
| 2026-04-16 11:58 | 62.59813 | -43.07076 | 10128 ft | 111 kts | 217° |
| 2026-04-16 11:58 | 62.59196 | -43.08171 | 10118 ft | 115 kts | 217° |
| 2026-04-16 11:58 | 62.58571 | -43.09288 | 10107 ft | 117 kts | 218° |
| 2026-04-16 11:59 | 62.57940 | -43.10418 | 10089 ft | 119 kts | 218° |
| 2026-04-16 11:59 | 62.57297 | -43.11563 | 10091 ft | 119 kts | 218° |
| 2026-04-16 11:59 | 62.56651 | -43.12708 | 10076 ft | 121 kts | 217° |
| 2026-04-16 11:59 | 62.55995 | -43.13866 | 10060 ft | 122 kts | 217° |
| 2026-04-16 12:00 | 62.55337 | -43.15022 | 10051 ft | 121 kts | 217° |
| 2026-04-16 12:00 | 62.54690 | -43.16156 | 10050 ft | 120 kts | 217° |
| 2026-04-16 12:00 | 62.54033 | -43.17298 | 10042 ft | 120 kts | 217° |
| 2026-04-16 12:00 | 62.53385 | -43.18424 | 10034 ft | 121 kts | 217° |
| 2026-04-16 12:01 | 62.52730 | -43.19563 | 10020 ft | 121 kts | 217° |
| 2026-04-16 12:01 | 62.52071 | -43.20710 | 10003 ft | 121 kts | 217° |
| 2026-04-16 12:01 | 62.51420 | -43.21840 | 9985 ft | 121 kts | 217° |
| 2026-04-16 12:02 | 62.50106 | -43.24121 | 9946 ft | 121 kts | 217° |
| 2026-04-16 12:02 | 62.49443 | -43.25269 | 9932 ft | 121 kts | 217° |
| 2026-04-16 12:02 | 62.48793 | -43.26394 | 9932 ft | 121 kts | 217° |
| 2026-04-16 12:02 | 62.48134 | -43.27534 | 9931 ft | 120 kts | 217° |
| 2026-04-16 12:03 | 62.47477 | -43.28665 | 9931 ft | 120 kts | 217° |
| 2026-04-16 12:03 | 62.46834 | -43.29776 | 9936 ft | 119 kts | 217° |
| 2026-04-16 12:03 | 62.46180 | -43.30903 | 9935 ft | 119 kts | 217° |
| 2026-04-16 12:03 | 62.45536 | -43.32011 | 9936 ft | 119 kts | 217° |
| 2026-04-16 12:04 | 62.44885 | -43.33134 | 9938 ft | 119 kts | 217° |
| 2026-04-16 12:04 | 62.44243 | -43.34240 | 9937 ft | 119 kts | 217° |
| 2026-04-16 12:04 | 62.43590 | -43.35360 | 9932 ft | 119 kts | 217° |
| 2026-04-16 12:04 | 62.42952 | -43.36459 | 9931 ft | 119 kts | 217° |
| 2026-04-16 12:05 | 62.42304 | -43.37572 | 9925 ft | 119 kts | 217° |
| 2026-04-16 12:05 | 62.41652 | -43.38691 | 9920 ft | 119 kts | 217° |
| 2026-04-16 12:05 | 62.41005 | -43.39802 | 9920 ft | 119 kts | 217° |
| 2026-04-16 12:05 | 62.40868 | -43.40038 | 9920 ft | 119 kts | 217° |
| 2026-04-16 12:06 | 62.40319 | -43.40978 | 9921 ft | 119 kts | 217° |
| 2026-04-16 12:06 | 62.39674 | -43.42084 | 9922 ft | 119 kts | 217° |
| 2026-04-16 12:06 | 62.39030 | -43.43187 | 9931 ft | 117 kts | 217° |
| 2026-04-16 12:06 | 62.38397 | -43.44268 | 9971 ft | 114 kts | 217° |
| 2026-04-16 12:07 | 62.37770 | -43.45326 | 10016 ft | 112 kts | 216° |
| 2026-04-16 12:07 | 62.37166 | -43.46341 | 10062 ft | 110 kts | 216° |
| 2026-04-16 12:07 | 62.36565 | -43.47346 | 10111 ft | 108 kts | 215° |
| 2026-04-16 12:07 | 62.35981 | -43.48320 | 10158 ft | 106 kts | 215° |
| 2026-04-16 12:08 | 62.35399 | -43.49290 | 10206 ft | 104 kts | 214° |
| 2026-04-16 12:08 | 62.34831 | -43.50236 | 10254 ft | 102 kts | 214° |
| 2026-04-16 12:08 | 62.34280 | -43.51153 | 10304 ft | 99 kts | 213° |
| 2026-04-16 12:08 | 62.33740 | -43.52050 | 10354 ft | 97 kts | 213° |
| 2026-04-16 12:09 | 62.33207 | -43.52930 | 10403 ft | 95 kts | 212° |
| 2026-04-16 12:09 | 62.32687 | -43.53787 | 10453 ft | 93 kts | 212° |
| 2026-04-16 12:09 | 62.32180 | -43.54620 | 10502 ft | 91 kts | 212° |
| 2026-04-16 12:09 | 62.31682 | -43.55436 | 10552 ft | 90 kts | 212° |
| 2026-04-16 12:10 | 62.31187 | -43.56248 | 10601 ft | 88 kts | 211° |
| 2026-04-16 12:10 | 62.30701 | -43.57047 | 10651 ft | 87 kts | 211° |
| 2026-04-16 12:10 | 62.30228 | -43.57823 | 10699 ft | 86 kts | 211° |
| 2026-04-16 12:10 | 62.29754 | -43.58602 | 10748 ft | 84 kts | 211° |
| 2026-04-16 12:11 | 62.29293 | -43.59358 | 10797 ft | 83 kts | 211° |
| 2026-04-16 12:11 | 62.28837 | -43.60107 | 10845 ft | 82 kts | 211° |
| 2026-04-16 12:11 | 62.28388 | -43.60845 | 10892 ft | 80 kts | 210° |
| 2026-04-16 12:11 | 62.27950 | -43.61564 | 10938 ft | 79 kts | 210° |
| 2026-04-16 12:12 | 62.27514 | -43.62279 | 10986 ft | 78 kts | 210° |
| 2026-04-16 12:12 | 62.27090 | -43.62973 | 11030 ft | 76 kts | 208° |
| 2026-04-16 12:12 | 62.26668 | -43.63662 | 11069 ft | 75 kts | 208° |
| 2026-04-16 12:12 | 62.26254 | -43.64339 | 11107 ft | 74 kts | 208° |
| 2026-04-16 12:13 | 62.25848 | -43.65004 | 11142 ft | 72 kts | 207° |
| 2026-04-16 12:13 | 62.25454 | -43.65651 | 11174 ft | 71 kts | 207° |
| 2026-04-16 12:13 | 62.25070 | -43.66279 | 11206 ft | 69 kts | 206° |
| 2026-04-16 12:13 | 62.24692 | -43.66897 | 11231 ft | 67 kts | 206° |
| 2026-04-16 12:14 | 62.24317 | -43.67510 | 11251 ft | 67 kts | 206° |
| 2026-04-16 12:14 | 62.23949 | -43.68111 | 11270 ft | 67 kts | 207° |
| 2026-04-16 12:14 | 62.23579 | -43.68721 | 11289 ft | 67 kts | 207° |
| 2026-04-16 12:14 | 62.23209 | -43.69331 | 11307 ft | 66 kts | 207° |
| 2026-04-16 12:15 | 62.22846 | -43.69933 | 11318 ft | 67 kts | 207° |
| 2026-04-16 12:15 | 62.22476 | -43.70549 | 11331 ft | 67 kts | 206° |
| 2026-04-16 12:15 | 62.22106 | -43.71166 | 11340 ft | 67 kts | 206° |
| 2026-04-16 12:15 | 62.21739 | -43.71779 | 11351 ft | 67 kts | 206° |
| 2026-04-16 12:16 | 62.21368 | -43.72400 | 11366 ft | 67 kts | 206° |
| 2026-04-16 12:16 | 62.21000 | -43.73018 | 11383 ft | 67 kts | 206° |
| 2026-04-16 12:16 | 62.20638 | -43.73626 | 11397 ft | 67 kts | 206° |
| 2026-04-16 12:16 | 62.20270 | -43.74241 | 11412 ft | 66 kts | 206° |
| 2026-04-16 12:17 | 62.19905 | -43.74852 | 11411 ft | 69 kts | 206° |
| 2026-04-16 12:17 | 62.19498 | -43.75527 | 11355 ft | 79 kts | 210° |
| 2026-04-16 12:17 | 62.19045 | -43.76320 | 11287 ft | 90 kts | 214° |
| 2026-04-16 12:17 | 62.18544 | -43.77245 | 11216 ft | 99 kts | 217° |
| 2026-04-16 12:18 | 62.18005 | -43.78258 | 11145 ft | 106 kts | 218° |
| 2026-04-16 12:18 | 62.17434 | -43.79330 | 11072 ft | 114 kts | 218° |
| 2026-04-16 12:18 | 62.16819 | -43.80480 | 10995 ft | 119 kts | 218° |
| 2026-04-16 12:18 | 62.16185 | -43.81649 | 10916 ft | 124 kts | 218° |
| 2026-04-16 12:19 | 62.15519 | -43.82855 | 10826 ft | 127 kts | 218° |
| 2026-04-16 12:19 | 62.14831 | -43.84073 | 10737 ft | 129 kts | 218° |
| 2026-04-16 12:19 | 62.14142 | -43.85278 | 10646 ft | 130 kts | 217° |
| 2026-04-16 12:19 | 62.13432 | -43.86503 | 10554 ft | 131 kts | 217° |
| 2026-04-16 12:20 | 62.12726 | -43.87710 | 10464 ft | 132 kts | 217° |
| 2026-04-16 12:20 | 62.12008 | -43.88930 | 10372 ft | 132 kts | 217° |
| 2026-04-16 12:20 | 62.11284 | -43.90154 | 10279 ft | 132 kts | 217° |
| 2026-04-16 12:20 | 62.10560 | -43.91374 | 10185 ft | 133 kts | 217° |
| 2026-04-16 12:21 | 62.09832 | -43.92599 | 10092 ft | 133 kts | 217° |
| 2026-04-16 12:21 | 62.09110 | -43.93809 | 10001 ft | 133 kts | 217° |
| 2026-04-16 12:21 | 62.08378 | -43.95034 | 9921 ft | 133 kts | 217° |
| 2026-04-16 12:21 | 62.07669 | -43.96217 | 9904 ft | 128 kts | 216° |
| 2026-04-16 12:22 | 62.06974 | -43.97373 | 9902 ft | 125 kts | 216° |
| 2026-04-16 12:22 | 62.06292 | -43.98504 | 9902 ft | 123 kts | 216° |
| 2026-04-16 12:22 | 62.05629 | -43.99600 | 9902 ft | 121 kts | 216° |
| 2026-04-16 12:22 | 62.04962 | -44.00704 | 9900 ft | 121 kts | 215° |
| 2026-04-16 12:23 | 62.04299 | -44.01801 | 9899 ft | 120 kts | 216° |
| 2026-04-16 12:23 | 62.03637 | -44.02893 | 9898 ft | 120 kts | 216° |
| 2026-04-16 12:23 | 62.02988 | -44.03968 | 9897 ft | 119 kts | 216° |
| 2026-04-16 12:23 | 62.02330 | -44.05056 | 9894 ft | 119 kts | 216° |
| 2026-04-16 12:24 | 62.01674 | -44.06143 | 9894 ft | 119 kts | 216° |
| 2026-04-16 12:24 | 62.01026 | -44.07217 | 9886 ft | 119 kts | 216° |
| 2026-04-16 12:24 | 62.00375 | -44.08295 | 9879 ft | 119 kts | 216° |
| 2026-04-16 12:24 | 61.99717 | -44.09383 | 9874 ft | 119 kts | 216° |
| 2026-04-16 12:25 | 61.99063 | -44.10468 | 9871 ft | 119 kts | 216° |
| 2026-04-16 12:25 | 61.98409 | -44.11548 | 9870 ft | 119 kts | 216° |
| 2026-04-16 12:25 | 61.97755 | -44.12629 | 9871 ft | 119 kts | 216° |
| 2026-04-16 12:25 | 61.97108 | -44.13696 | 9870 ft | 119 kts | 216° |
| 2026-04-16 12:26 | 61.96605 | -44.14526 | 9869 ft | 119 kts | 216° |
| 2026-04-16 12:26 | 61.96342 | -44.14960 | 9870 ft | 119 kts | 216° |
| 2026-04-16 12:26 | 61.95684 | -44.16044 | 9869 ft | 119 kts | 216° |
| 2026-04-16 12:26 | 61.95026 | -44.17127 | 9866 ft | 119 kts | 216° |
| 2026-04-16 12:27 | 61.94369 | -44.18209 | 9866 ft | 119 kts | 216° |
| 2026-04-16 12:27 | 61.93720 | -44.19279 | 9864 ft | 119 kts | 216° |
| 2026-04-16 12:27 | 61.93061 | -44.20365 | 9862 ft | 119 kts | 216° |
| 2026-04-16 12:27 | 61.92416 | -44.21430 | 9862 ft | 118 kts | 216° |
| 2026-04-16 12:28 | 61.91766 | -44.22500 | 9862 ft | 118 kts | 216° |
| 2026-04-16 12:28 | 61.91122 | -44.23559 | 9866 ft | 117 kts | 216° |
| 2026-04-16 12:28 | 61.90474 | -44.24624 | 9869 ft | 117 kts | 216° |
| 2026-04-16 12:28 | 61.89832 | -44.25675 | 9872 ft | 117 kts | 215° |
| 2026-04-16 12:29 | 61.89181 | -44.26741 | 9874 ft | 118 kts | 216° |
| 2026-04-16 12:29 | 61.88528 | -44.27808 | 9872 ft | 118 kts | 216° |
| 2026-04-16 12:29 | 61.87881 | -44.28867 | 9866 ft | 119 kts | 216° |
| 2026-04-16 12:29 | 61.87222 | -44.29946 | 9866 ft | 119 kts | 216° |
| 2026-04-16 12:30 | 61.86570 | -44.31013 | 9864 ft | 119 kts | 216° |
| 2026-04-16 12:30 | 61.85916 | -44.32084 | 9865 ft | 119 kts | 216° |
| 2026-04-16 12:30 | 61.85259 | -44.33159 | 9864 ft | 119 kts | 216° |
| 2026-04-16 12:30 | 61.84604 | -44.34229 | 9863 ft | 119 kts | 216° |
| 2026-04-16 12:31 | 61.83957 | -44.35286 | 9863 ft | 119 kts | 216° |
| 2026-04-16 12:31 | 61.83300 | -44.36360 | 9861 ft | 119 kts | 216° |
| 2026-04-16 12:31 | 61.82649 | -44.37422 | 9860 ft | 119 kts | 216° |
| 2026-04-16 12:31 | 61.81993 | -44.38493 | 9860 ft | 119 kts | 216° |
| 2026-04-16 12:32 | 61.81336 | -44.39563 | 9858 ft | 119 kts | 216° |
| 2026-04-16 12:32 | 61.80688 | -44.40620 | 9855 ft | 119 kts | 216° |
| 2026-04-16 12:32 | 61.80029 | -44.41694 | 9852 ft | 119 kts | 216° |
| 2026-04-16 12:32 | 61.79380 | -44.42751 | 9852 ft | 118 kts | 216° |
| 2026-04-16 12:33 | 61.78732 | -44.43804 | 9849 ft | 118 kts | 216° |
| 2026-04-16 12:33 | 61.78077 | -44.44870 | 9844 ft | 118 kts | 216° |
| 2026-04-16 12:33 | 61.77418 | -44.45940 | 9837 ft | 119 kts | 216° |
| 2026-04-16 12:33 | 61.76770 | -44.46993 | 9833 ft | 119 kts | 216° |
| 2026-04-16 12:34 | 61.76111 | -44.48063 | 9829 ft | 119 kts | 216° |
| 2026-04-16 12:34 | 61.75460 | -44.49117 | 9828 ft | 119 kts | 216° |
| 2026-04-16 12:34 | 61.74802 | -44.50184 | 9828 ft | 118 kts | 216° |
| 2026-04-16 12:34 | 61.74156 | -44.51232 | 9833 ft | 118 kts | 216° |
| 2026-04-16 12:35 | 61.73501 | -44.52292 | 9834 ft | 118 kts | 216° |
| 2026-04-16 12:35 | 61.72846 | -44.53352 | 9834 ft | 118 kts | 216° |
| 2026-04-16 12:35 | 61.72201 | -44.54396 | 9835 ft | 118 kts | 216° |
| 2026-04-16 12:35 | 61.71548 | -44.55452 | 9837 ft | 118 kts | 216° |
| 2026-04-16 12:36 | 61.70897 | -44.56504 | 9840 ft | 118 kts | 216° |
| 2026-04-16 12:36 | 61.70255 | -44.57544 | 9843 ft | 117 kts | 216° |
| 2026-04-16 12:36 | 61.69601 | -44.58598 | 9847 ft | 117 kts | 215° |
| 2026-04-16 12:36 | 61.68958 | -44.59635 | 9849 ft | 117 kts | 215° |
| 2026-04-16 12:37 | 61.68307 | -44.60685 | 9851 ft | 117 kts | 215° |
| 2026-04-16 12:37 | 61.67656 | -44.61732 | 9852 ft | 117 kts | 215° |
| 2026-04-16 12:37 | 61.67011 | -44.62769 | 9851 ft | 118 kts | 216° |
| 2026-04-16 12:37 | 61.66358 | -44.63820 | 9851 ft | 118 kts | 216° |
| 2026-04-16 12:38 | 61.65714 | -44.64854 | 9850 ft | 118 kts | 216° |
| 2026-04-16 12:38 | 61.65062 | -44.65904 | 9849 ft | 118 kts | 215° |
| 2026-04-16 12:38 | 61.64411 | -44.66952 | 9851 ft | 117 kts | 215° |
| 2026-04-16 12:38 | 61.63770 | -44.67984 | 9851 ft | 117 kts | 215° |
| 2026-04-16 12:39 | 61.63120 | -44.69029 | 9849 ft | 117 kts | 215° |
| 2026-04-16 12:39 | 61.62470 | -44.70073 | 9848 ft | 117 kts | 215° |
| 2026-04-16 12:39 | 61.61828 | -44.71102 | 9850 ft | 117 kts | 215° |
| 2026-04-16 12:39 | 61.61174 | -44.72154 | 9717 ft | 126 kts | 215° |
| 2026-04-16 12:40 | 61.60488 | -44.73271 | 9437 ft | 123 kts | 217° |
| 2026-04-16 12:40 | 61.59817 | -44.74366 | 9159 ft | 122 kts | 216° |
| 2026-04-16 12:40 | 61.59152 | -44.75447 | 8885 ft | 121 kts | 217° |
| 2026-04-16 12:40 | 61.58482 | -44.76528 | 8618 ft | 121 kts | 217° |
| 2026-04-16 12:41 | 61.57745 | -44.77301 | 8322 ft | 120 kts | 195° |
| 2026-04-16 12:41 | 61.56939 | -44.77696 | 8054 ft | 120 kts | 192° |
| 2026-04-16 12:41 | 61.56126 | -44.78143 | 7795 ft | 121 kts | 203° |
| 2026-04-16 12:41 | 61.55360 | -44.78852 | 7534 ft | 122 kts | 204° |
| 2026-04-16 12:42 | 61.54587 | -44.79572 | 7288 ft | 122 kts | 204° |
| 2026-04-16 12:42 | 61.53842 | -44.80375 | 7108 ft | 118 kts | 210° |
| 2026-04-16 12:42 | 61.53223 | -44.81479 | 6956 ft | 117 kts | 229° |
| 2026-04-16 12:42 | 61.52728 | -44.82815 | 6767 ft | 123 kts | 234° |
| 2026-04-16 12:43 | 61.52271 | -44.84261 | 6712 ft | 111 kts | 239° |
| 2026-04-16 12:43 | 61.51795 | -44.85564 | 6536 ft | 117 kts | 231° |
| 2026-04-16 12:43 | 61.51238 | -44.86805 | 6394 ft | 118 kts | 220° |
| 2026-04-16 12:43 | 61.50577 | -44.87787 | 6291 ft | 115 kts | 214° |
| 2026-04-16 12:44 | 61.49984 | -44.89037 | 6036 ft | 125 kts | 226° |
| 2026-04-16 12:44 | 61.49316 | -44.90020 | 5964 ft | 111 kts | 218° |
| 2026-04-16 12:44 | 61.48731 | -44.91049 | 5976 ft | 111 kts | 220° |
| 2026-04-16 12:44 | 61.48144 | -44.92113 | 5985 ft | 111 kts | 220° |
| 2026-04-16 12:45 | 61.47556 | -44.93179 | 5993 ft | 111 kts | 220° |
| 2026-04-16 12:45 | 61.46971 | -44.94238 | 6004 ft | 112 kts | 220° |
| 2026-04-16 12:45 | 61.46390 | -44.95308 | 6009 ft | 112 kts | 221° |
| 2026-04-16 12:45 | 61.45792 | -44.96378 | 6019 ft | 113 kts | 219° |
| 2026-04-16 12:46 | 61.45183 | -44.97406 | 6033 ft | 113 kts | 219° |
| 2026-04-16 12:46 | 61.44561 | -44.98427 | 6032 ft | 113 kts | 218° |
| 2026-04-16 12:46 | 61.43938 | -44.99433 | 6043 ft | 113 kts | 217° |
| 2026-04-16 12:46 | 61.43777 | -44.99690 | 6046 ft | 112 kts | 217° |
| 2026-04-16 12:47 | 61.43358 | -45.00359 | 6051 ft | 112 kts | 217° |
| 2026-04-16 12:47 | 61.42739 | -45.01342 | 6053 ft | 113 kts | 216° |
| 2026-04-16 12:47 | 61.42130 | -45.02312 | 5905 ft | 111 kts | 217° |
| 2026-04-16 12:47 | 61.41511 | -45.03297 | 5749 ft | 111 kts | 217° |
| 2026-04-16 12:48 | 61.40899 | -45.04268 | 5591 ft | 112 kts | 217° |
| 2026-04-16 12:48 | 61.40290 | -45.05234 | 5388 ft | 110 kts | 218° |
| 2026-04-16 12:48 | 61.39684 | -45.06193 | 5151 ft | 110 kts | 217° |
| 2026-04-16 12:48 | 61.39070 | -45.07164 | 4917 ft | 110 kts | 217° |
| 2026-04-16 12:49 | 61.38408 | -45.07898 | 4696 ft | 108 kts | 204° |
| 2026-04-16 12:49 | 61.37701 | -45.08364 | 4495 ft | 106 kts | 196° |
| 2026-04-16 12:49 | 61.36982 | -45.08758 | 4286 ft | 106 kts | 195° |
| 2026-04-16 12:49 | 61.36274 | -45.09140 | 4077 ft | 105 kts | 195° |
| 2026-04-16 12:50 | 61.35557 | -45.09523 | 3847 ft | 105 kts | 195° |
| 2026-04-16 12:50 | 61.34892 | -45.10109 | 3563 ft | 106 kts | 218° |
| 2026-04-16 12:50 | 61.34328 | -45.11116 | 3301 ft | 108 kts | 223° |
| 2026-04-16 12:50 | 61.33780 | -45.12149 | 3141 ft | 106 kts | 222° |
| 2026-04-16 12:51 | 61.33224 | -45.13207 | 3134 ft | 109 kts | 223° |
| 2026-04-16 12:51 | 61.32662 | -45.14281 | 3133 ft | 111 kts | 222° |
| 2026-04-16 12:51 | 61.32085 | -45.15388 | 3139 ft | 112 kts | 223° |
| 2026-04-16 12:51 | 61.31513 | -45.16484 | 3145 ft | 113 kts | 223° |
| 2026-04-16 12:52 | 61.30933 | -45.17602 | 3149 ft | 113 kts | 223° |
| 2026-04-16 12:52 | 61.30359 | -45.18715 | 3154 ft | 113 kts | 223° |
| 2026-04-16 12:52 | 61.29789 | -45.19828 | 3163 ft | 113 kts | 223° |
| 2026-04-16 12:52 | 61.29221 | -45.20944 | 3160 ft | 109 kts | 223° |
| 2026-04-16 12:53 | 61.28681 | -45.22119 | 3025 ft | 113 kts | 226° |
| 2026-04-16 12:53 | 61.28119 | -45.23188 | 2916 ft | 109 kts | 219° |
| 2026-04-16 12:53 | 61.27519 | -45.24153 | 2779 ft | 108 kts | 216° |
| 2026-04-16 12:53 | 61.26906 | -45.24999 | 2653 ft | 106 kts | 215° |
| 2026-04-16 12:54 | 61.26295 | -45.25788 | 2557 ft | 101 kts | 209° |
| 2026-04-16 12:54 | 61.25701 | -45.26488 | 2497 ft | 96 kts | 212° |
| 2026-04-16 12:54 | 61.25092 | -45.27200 | 2357 ft | 101 kts | 209° |
| 2026-04-16 12:54 | 61.24517 | -45.27972 | 2300 ft | 99 kts | 214° |
| 2026-04-16 12:55 | 61.23967 | -45.28842 | 2270 ft | 100 kts | 221° |
| 2026-04-16 12:55 | 61.23416 | -45.29780 | 2186 ft | 104 kts | 219° |
| 2026-04-16 12:55 | 61.22847 | -45.30756 | 2100 ft | 106 kts | 220° |
| 2026-04-16 12:55 | 61.22281 | -45.31749 | 2034 ft | 107 kts | 222° |
| 2026-04-16 12:56 | 61.21733 | -45.32772 | 1997 ft | 104 kts | 222° |
| 2026-04-16 12:56 | 61.21175 | -45.33766 | 1886 ft | 109 kts | 221° |
| 2026-04-16 12:56 | 61.20597 | -45.34835 | 1724 ft | 114 kts | 223° |
| 2026-04-16 12:56 | 61.19961 | -45.35851 | 1453 ft | 113 kts | 220° |
| 2026-04-16 12:57 | 61.19395 | -45.36803 | 1229 ft | 99 kts | 222° |
| 2026-04-16 12:57 | 61.18903 | -45.37653 | 1057 ft | 87 kts | 221° |
| 2026-04-16 12:57 | 61.18469 | -45.38417 | 829 ft | 74 kts | 221° |
| 2026-04-16 12:57 | 61.18105 | -45.39037 | 663 ft | 66 kts | 220° |
| 2026-04-16 12:58 | 61.17749 | -45.39640 | 475 ft | 68 kts | 221° |
| 2026-04-16 12:58 | 61.17412 | -45.40237 | 368 ft | 62 kts | 219° |
| 2026-04-16 12:58 | 61.17075 | -45.40808 | 285 ft | 63 kts | 219° |
| 2026-04-16 12:58 | 61.16740 | -45.41393 | 164 ft | 61 kts | 218° |
| 2026-04-16 12:59 | 61.16433 | -45.41932 | 124 ft | 51 kts | 219° |
| 2026-04-16 12:59 | 61.16280 | -45.42191 | 138 ft | 13 kts | 220° |
| 2026-04-16 12:59 | 61.16248 | -45.42220 | 142 ft | 5 kts | 54° |
| 2026-04-16 13:00 | 61.16309 | -45.42041 | 140 ft | 3 kts | 128° |
| 2026-04-16 13:00 | 61.16278 | -45.41971 | 150 ft | 4 kts | 146° |
| 2026-04-16 13:00 | 61.16246 | -45.41891 | 159 ft | 7 kts | 131° |
| 2026-04-16 13:00 | 61.16211 | -45.41835 | 168 ft | 5 kts | 174° |
| 2026-04-16 13:01 | 61.16168 | -45.41871 | 173 ft | 8 kts | 224° |
| 2026-04-16 13:01 | 61.16179 | -45.41893 | 170 ft | 4 kts | 19° |
| 2026-04-16 13:01 | 61.16186 | -45.41877 | 170 ft | 0 kts | 82° |
| 2026-04-16 13:01 | 61.16187 | -45.41872 | 170 ft | 0 kts | 44° |